Time;durP1;ratioP1;P1;durP2;ratioP2;P2;SDS_P1;SDS_P2;PMS_P1;PMS_P2;Temp;Humidity;BMP_temperature;BMP_pressure;BME280_temperature;BME280_humidity;BME280_pressure;Samples;Min_cycle;Max_cycle;Signal;HPM_P1;HPM_P2
2020/12/09 00:01:43;;;;;;;223.40;57.47;;;;;;;6.35;77.09;100738.56;6214765;23;20043;-81
2020/12/09 00:04:11;;;;;;;430.98;75.90;;;;;;;6.33;77.12;100735.13;6189623;23;20446;-82
2020/12/09 00:06:38;;;;;;;451.55;78.40;;;;;;;6.34;76.98;100742.09;6214647;23;20024;-82
2020/12/09 00:09:16;;;;;;;440.52;76.38;;;;;;;6.36;76.60;100737.66;6214852;23;20028;-82
2020/12/09 00:11:42;;;;;;;428.17;74.32;;;;;;;6.37;76.84;100742.00;6189519;23;20024;-82
2020/12/09 00:14:09;;;;;;;246.45;65.07;;;;;;;6.37;76.59;100742.00;6215001;23;20119;-82
2020/12/09 00:16:36;;;;;;;441.65;77.68;;;;;;;6.37;77.06;100742.00;6189229;23;20020;-82
2020/12/09 00:19:04;;;;;;;372.42;71.97;;;;;;;6.37;76.63;100742.00;6216511;23;20525;-82
2020/12/09 00:21:31;;;;;;;430.33;74.57;;;;;;;6.38;76.88;100743.72;6188960;23;20059;-82
2020/12/09 00:23:58;;;;;;;391.95;73.38;;;;;;;6.39;76.74;100750.72;6189869;23;20016;-82
2020/12/09 00:26:25;;;;;;;420.90;72.90;;;;;;;6.40;76.99;100756.84;6213589;23;20020;-82
2020/12/09 00:28:52;;;;;;;371.30;70.70;;;;;;;6.41;76.58;100754.16;6216267;23;20024;-82
2020/12/09 00:31:22;;;;;;;401.98;73.50;;;;;;;6.41;76.80;100758.56;6188847;23;20107;-81
2020/12/09 00:33:49;;;;;;;337.95;65.40;;;;;;;6.41;76.46;100759.44;6214627;23;20016;-82
2020/12/09 00:36:16;;;;;;;354.23;67.05;;;;;;;6.39;76.79;100766.50;6214308;23;20030;-82
2020/12/09 00:38:43;;;;;;;334.27;65.20;;;;;;;6.38;76.80;100770.03;6213969;23;20115;-83
2020/12/09 00:41:17;;;;;;;327.27;65.32;;;;;;;6.33;76.60;100766.69;6214171;23;20074;-82
2020/12/09 00:43:43;;;;;;;297.05;63.20;;;;;;;6.33;76.67;100766.69;6215596;23;20012;-81
2020/12/09 00:46:20;;;;;;;293.70;63.13;;;;;;;6.32;76.70;100778.09;6187632;23;20028;-82
2020/12/09 00:48:50;;;;;;;306.13;65.07;;;;;;;6.30;76.99;100756.25;6212967;23;20071;-81
2020/12/09 00:51:20;;;;;;;376.98;71.47;;;;;;;6.29;76.92;100765.06;6187902;23;20024;-82
2020/12/09 00:53:47;;;;;;;341.40;69.32;;;;;;;6.28;76.94;100763.31;6213336;23;20021;-81
2020/12/09 00:56:18;;;;;;;319.20;68.45;;;;;;;6.29;76.81;100759.81;6213536;23;20063;-81
2020/12/09 00:58:45;;;;;;;286.67;63.17;;;;;;;6.28;76.79;100749.31;6217054;23;20028;-81
2020/12/09 01:01:12;;;;;;;354.27;70.18;;;;;;;6.27;77.05;100756.31;6217880;23;20034;-79
2020/12/09 01:03:44;;;;;;;331.92;69.32;;;;;;;6.26;77.01;100756.41;6194821;23;20020;-81
2020/12/09 01:06:10;;;;;;;325.33;71.20;;;;;;;6.24;76.77;100756.44;6192978;23;20074;-81
2020/12/09 01:08:36;;;;;;;338.58;69.22;;;;;;;6.23;76.80;100759.94;6218443;22;20028;-81
2020/12/09 01:11:04;;;;;;;334.02;73.20;;;;;;;6.23;76.97;100759.94;6218360;23;20470;-81
2020/12/09 01:13:31;;;;;;;322.67;70.80;;;;;;;6.23;77.09;100770.47;6245684;23;20027;-82
2020/12/09 01:15:57;;;;;;;263.83;65.07;;;;;;;6.24;77.27;100769.59;6243375;23;20047;-82
2020/12/09 01:18:23;;;;;;;289.17;65.97;;;;;;;6.27;77.17;100766.84;6193372;22;20481;-81
2020/12/09 01:20:50;;;;;;;339.08;72.45;;;;;;;6.27;76.93;100761.59;6217143;23;20446;-81
2020/12/09 01:23:17;;;;;;;390.02;74.43;;;;;;;6.28;76.98;100771.22;6218343;23;20055;-81
2020/12/09 01:25:43;;;;;;;415.52;78.40;;;;;;;6.29;76.92;100775.56;6219071;23;20096;-81
2020/12/09 01:28:09;;;;;;;346.88;72.80;;;;;;;6.30;77.31;100774.66;6245299;23;20450;-81
2020/12/09 01:30:35;;;;;;;317.23;67.95;;;;;;;6.31;77.08;100780.78;6219138;23;20070;-81
2020/12/09 01:33:01;;;;;;;301.73;66.45;;;;;;;6.31;76.79;100786.91;6244977;23;20091;-81
2020/12/09 01:35:27;;;;;;;332.50;70.53;;;;;;;6.31;76.75;100784.28;6219772;23;20034;-81
2020/12/09 01:37:54;;;;;;;234.60;60.65;;;;;;;6.31;77.13;100784.28;6245457;23;20353;-81
2020/12/09 01:40:20;;;;;;;306.10;66.60;;;;;;;6.32;77.19;100787.78;6219623;23;20016;-81
2020/12/09 01:42:50;;;;;;;332.27;70.07;;;;;;;6.32;77.10;100780.72;6194051;23;20070;-81
2020/12/09 01:45:18;;;;;;;285.90;67.57;;;;;;;6.32;77.03;100791.25;6219723;23;20019;-81
2020/12/09 01:47:45;;;;;;;356.20;73.20;;;;;;;6.34;77.09;100789.44;6218374;23;20335;-81
2020/12/09 01:50:13;;;;;;;336.90;73.70;;;;;;;6.36;77.01;100787.63;6243959;23;20396;-81
2020/12/09 01:52:39;;;;;;;320.52;70.38;;;;;;;6.38;77.11;100790.22;6245413;23;20012;-82
2020/12/09 01:55:06;;;;;;;307.33;70.35;;;;;;;6.38;76.89;100785.81;6218185;23;20043;-81
2020/12/09 01:57:32;;;;;;;354.25;74.70;;;;;;;6.38;77.04;100796.31;6245347;23;20020;-81
2020/12/09 01:59:58;;;;;;;300.85;68.93;;;;;;;6.38;76.80;100801.59;6220299;23;20023;-81
2020/12/09 02:02:24;;;;;;;291.25;66.97;;;;;;;6.37;76.74;100799.88;6220180;23;20028;-81
2020/12/09 02:04:50;;;;;;;277.65;68.47;;;;;;;6.36;76.84;100795.50;6220921;23;20012;-81
2020/12/09 02:07:20;;;;;;;311.27;67.65;;;;;;;6.36;76.64;100803.41;6195450;23;20110;-81
2020/12/09 02:10:06;;;;;;;258.20;64.35;;;;;;;6.34;76.85;100805.22;6196318;23;20357;-81
2020/12/09 02:12:34;;;;;;;282.88;63.40;;;;;;;6.35;76.75;100803.47;6220352;23;20020;-81
2020/12/09 02:15:00;;;;;;;305.40;68.18;;;;;;;6.34;76.99;100799.97;6194144;23;20361;-81
2020/12/09 02:17:26;;;;;;;262.00;66.20;;;;;;;6.33;76.95;100798.25;6219721;23;20020;-81
2020/12/09 02:19:52;;;;;;;306.02;68.20;;;;;;;6.33;77.01;100797.38;6220313;23;20016;-81
2020/12/09 02:22:19;;;;;;;265.77;63.33;;;;;;;6.32;76.62;100791.25;6247851;23;20020;-81
2020/12/09 02:24:45;;;;;;;291.35;63.67;;;;;;;6.30;76.74;100798.31;6220302;23;20015;-81
2020/12/09 02:27:11;;;;;;;254.88;63.33;;;;;;;6.30;77.12;100795.69;6218751;23;20023;-81
2020/12/09 02:29:37;;;;;;;288.77;64.55;;;;;;;6.28;76.65;100794.88;6219526;23;20031;-81
2020/12/09 02:32:03;;;;;;;269.70;62.30;;;;;;;6.27;76.93;100793.13;6246022;23;20016;-81
2020/12/09 02:34:29;;;;;;;274.70;60.35;;;;;;;6.26;76.75;100796.69;6244739;23;20012;-81
2020/12/09 02:36:55;;;;;;;253.10;56.60;;;;;;;6.26;76.74;100806.34;6219189;23;20051;-81
2020/12/09 02:39:31;;;;;;;247.60;56.05;;;;;;;6.24;76.92;100798.50;6219138;23;20115;-81
2020/12/09 02:41:57;;;;;;;238.20;57.33;;;;;;;6.23;76.90;100802.03;6219207;23;20110;-81
2020/12/09 02:44:23;;;;;;;256.15;56.60;;;;;;;6.21;76.92;100803.84;6219268;23;20028;-81
2020/12/09 02:46:49;;;;;;;254.93;55.88;;;;;;;6.18;76.61;100803.94;6219467;23;20019;-81
2020/12/09 02:49:16;;;;;;;236.45;51.05;;;;;;;6.14;76.98;100802.28;6219867;23;20028;-81
2020/12/09 02:51:42;;;;;;;246.68;53.25;;;;;;;6.12;76.47;100798.81;6220128;23;20035;-81
2020/12/09 02:54:08;;;;;;;241.60;52.47;;;;;;;6.09;76.77;100804.19;6218872;23;20094;-80
2020/12/09 02:56:34;;;;;;;264.45;55.08;;;;;;;6.06;77.13;100799.00;6245979;23;20050;-81
2020/12/09 02:59:00;;;;;;;254.20;55.80;;;;;;;6.03;77.11;100803.44;6246337;22;20066;-81
2020/12/09 03:01:26;;;;;;;273.08;57.45;;;;;;;6.01;77.02;100801.78;6219235;23;20446;-81
2020/12/09 03:03:51;;;;;;;259.80;56.20;;;;;;;6.00;76.86;100795.63;6219910;23;20023;-81
2020/12/09 03:06:18;;;;;;;286.00;58.95;;;;;;;6.00;76.72;100800.88;6246192;23;20339;-81
2020/12/09 03:08:44;;;;;;;250.13;54.70;;;;;;;5.98;76.83;100802.69;6219668;23;20027;-81
2020/12/09 03:11:10;;;;;;;254.20;56.17;;;;;;;5.97;76.64;100811.50;6245736;23;20521;-81
2020/12/09 03:13:36;;;;;;;271.05;57.75;;;;;;;5.95;76.70;100808.06;6219517;23;20028;-81
2020/12/09 03:16:01;;;;;;;244.73;55.47;;;;;;;5.93;76.66;100815.06;6194485;23;20023;-81
2020/12/09 03:18:27;;;;;;;249.90;57.03;;;;;;;5.91;76.85;100816.88;6220253;22;20110;-81
2020/12/09 03:20:53;;;;;;;273.45;58.83;;;;;;;5.88;76.53;100819.59;6246842;23;20050;-81
2020/12/09 03:23:19;;;;;;;248.93;56.85;;;;;;;5.83;76.25;100818.84;6219647;23;20016;-81
2020/12/09 03:25:45;;;;;;;289.00;60.40;;;;;;;5.76;76.30;100817.28;6245107;23;20533;-81
2020/12/09 03:28:12;;;;;;;262.58;57.05;;;;;;;5.72;76.18;100820.88;6219910;23;20091;-81
2020/12/09 03:30:38;;;;;;;266.42;59.70;;;;;;;5.66;76.30;100814.88;6220277;23;20047;-81
2020/12/09 03:33:05;;;;;;;273.10;57.55;;;;;;;5.62;76.47;100823.75;6219729;23;20470;-81
2020/12/09 03:35:31;;;;;;;268.55;57.35;;;;;;;5.59;76.31;100818.53;6195017;23;20116;-81
2020/12/09 03:37:57;;;;;;;291.35;60.13;;;;;;;5.55;76.26;100819.53;6221156;23;20055;-81
2020/12/09 03:40:23;;;;;;;267.35;60.67;;;;;;;5.50;76.53;100821.44;6197052;23;20052;-81
2020/12/09 03:42:49;;;;;;;227.57;55.92;;;;;;;5.44;76.50;100826.81;6195671;23;20016;-81
2020/12/09 03:45:15;;;;;;;270.48;60.55;;;;;;;5.39;76.48;100828.72;6219159;23;20019;-81
2020/12/09 03:47:41;;;;;;;290.75;62.28;;;;;;;5.35;76.27;100835.78;6194545;23;20028;-81
2020/12/09 03:50:08;;;;;;;261.80;56.42;;;;;;;5.30;76.27;100839.44;6195111;23;20050;-81
2020/12/09 03:52:34;;;;;;;278.58;59.33;;;;;;;5.24;75.91;100837.81;6219160;23;20954;-81
2020/12/09 03:55:01;;;;;;;288.42;62.40;;;;;;;5.17;75.67;100838.84;6220936;23;20043;-81
2020/12/09 03:57:27;;;;;;;300.30;61.10;;;;;;;5.06;75.57;100834.69;6219756;23;20066;-81
2020/12/09 03:59:53;;;;;;;292.10;58.58;;;;;;;4.94;75.62;100831.47;6189836;23;20092;-77
2020/12/09 04:02:19;;;;;;;280.95;57.75;;;;;;;4.80;75.39;100840.53;6237126;23;20016;-77
2020/12/09 04:04:44;;;;;;;292.27;58.28;;;;;;;4.68;75.60;100835.53;6213875;23;20109;-77
2020/12/09 04:07:10;;;;;;;314.65;59.20;;;;;;;4.59;75.84;100840.94;6212346;23;20032;-77
2020/12/09 04:09:36;;;;;;;313.38;59.85;;;;;;;4.47;75.71;100837.69;6187942;23;20328;-77
2020/12/09 04:12:02;;;;;;;289.95;56.30;;;;;;;4.35;75.42;100837.94;6214393;23;20016;-77
2020/12/09 04:14:30;;;;;;;270.42;52.35;;;;;;;4.25;75.69;100846.84;6188111;23;20016;-77
2020/12/09 04:16:56;;;;;;;295.00;58.45;;;;;;;4.16;75.67;100836.53;6212524;23;20026;-77
2020/12/09 04:19:22;;;;;;;302.35;59.22;;;;;;;4.05;75.69;100834.09;6214563;23;20328;-77
2020/12/09 04:21:48;;;;;;;278.45;53.97;;;;;;;3.89;75.37;100844.88;6211678;23;20028;-77
2020/12/09 04:24:14;;;;;;;328.90;59.80;;;;;;;3.75;75.07;100846.00;6187826;23;20023;-77
2020/12/09 04:26:40;;;;;;;337.52;61.72;;;;;;;3.60;75.11;100842.75;6214145;23;20382;-77
2020/12/09 04:29:06;;;;;;;361.83;60.15;;;;;;;3.46;75.33;100850.81;6214120;23;20024;-77
2020/12/09 04:31:32;;;;;;;343.10;59.70;;;;;;;3.37;75.71;100855.34;6214013;23;20070;-77
2020/12/09 04:34:00;;;;;;;370.33;62.13;;;;;;;3.30;76.07;100855.44;6213110;23;20021;-78
2020/12/09 04:36:27;;;;;;;397.75;62.58;;;;;;;3.23;76.38;100859.03;6212447;23;20055;-77
2020/12/09 04:38:54;;;;;;;353.20;61.28;;;;;;;3.14;75.63;100856.53;6212735;23;20095;-77
2020/12/09 04:41:20;;;;;;;373.55;60.60;;;;;;;3.03;75.71;100855.81;6212671;23;20032;-77
2020/12/09 04:43:46;;;;;;;316.65;52.53;;;;;;;2.97;75.93;100861.16;6212739;23;20017;-77
2020/12/09 04:46:12;;;;;;;337.63;57.13;;;;;;;2.90;76.12;100861.22;6213712;23;20044;-77
2020/12/09 04:48:40;;;;;;;380.55;62.08;;;;;;;2.84;76.04;100860.44;6214431;23;20023;-78
2020/12/09 04:51:39;;;;;;;367.60;59.03;;;;;;;2.76;75.92;100860.53;6211850;23;20027;-77
2020/12/09 04:54:13;;;;;;;357.95;57.03;;;;;;;2.70;76.53;100860.63;6212822;23;20382;-77
2020/12/09 04:56:55;;;;;;;383.45;59.17;;;;;;;2.65;76.53;100865.03;6212369;23;20462;-77
2020/12/09 04:59:24;;;;;;;379.33;58.35;;;;;;;2.66;77.42;100866.78;6212509;23;20020;-77
2020/12/09 05:02:01;;;;;;;414.20;62.75;;;;;;;2.73;78.19;100869.28;6212418;23;20042;-77
2020/12/09 05:04:30;;;;;;;409.50;58.53;;;;;;;2.83;78.17;100874.41;6213200;23;20021;-77
2020/12/09 05:06:56;;;;;;;433.73;59.90;;;;;;;2.95;78.48;100873.38;6212822;23;20045;-78
2020/12/09 05:09:26;;;;;;;610.25;68.95;;;;;;;3.05;78.56;100880.22;6214330;23;20512;-77
2020/12/09 05:11:58;;;;;;;655.03;71.53;;;;;;;3.16;78.57;100883.53;6212325;23;20103;-77
2020/12/09 05:14:27;;;;;;;625.58;71.13;;;;;;;3.25;78.39;100883.41;6211897;23;20017;-77
2020/12/09 05:16:58;;;;;;;638.60;71.28;;;;;;;3.35;78.43;100885.91;6212650;23;20323;-77
2020/12/09 05:19:26;;;;;;;883.30;75.25;;;;;;;3.43;78.06;100886.69;6212412;23;20025;-77
2020/12/09 05:21:54;;;;;;;981.42;86.53;;;;;;;3.47;78.26;100889.22;6212237;23;20346;-77
2020/12/09 05:24:20;;;;;;;649.42;68.95;;;;;;;3.49;77.42;100887.44;6212295;23;20040;-77
2020/12/09 05:26:47;;;;;;;651.88;65.97;;;;;;;3.50;77.40;100894.41;6212462;23;20031;-79
2020/12/09 05:29:18;;;;;;;792.72;79.95;;;;;;;3.49;77.03;100891.81;6213269;23;20331;-78
2020/12/09 05:31:49;;;;;;;646.00;64.40;;;;;;;3.47;76.71;100904.06;6213157;23;20354;-78
2020/12/09 05:34:21;;;;;;;527.20;61.40;;;;;;;3.38;76.22;100894.59;6188188;23;20361;-79
2020/12/09 05:36:53;;;;;;;603.90;62.40;;;;;;;3.30;76.23;100899.94;6235659;23;20027;-78
2020/12/09 05:39:19;;;;;;;559.42;62.08;;;;;;;3.25;76.21;100909.59;6188657;23;20358;-78
2020/12/09 05:41:45;;;;;;;493.02;59.47;;;;;;;3.21;76.42;100915.75;6212151;23;20481;-78
2020/12/09 05:44:12;;;;;;;567.67;63.50;;;;;;;3.16;76.08;100914.94;6212715;23;20043;-77
2020/12/09 05:47:02;;;;;;;576.17;60.67;;;;;;;3.09;75.80;100915.94;6212469;23;20024;-78
2020/12/09 05:49:31;;;;;;;560.92;62.33;;;;;;;3.05;76.22;100916.84;6187431;23;20020;-77
2020/12/09 05:52:12;;;;;;;624.70;69.82;;;;;;;3.01;75.98;100920.38;6186860;23;20028;-77
2020/12/09 05:54:41;;;;;;;502.92;56.20;;;;;;;3.00;75.97;100929.13;6212761;23;20016;-78
2020/12/09 05:57:09;;;;;;;522.33;57.40;;;;;;;2.96;76.27;100927.41;6213567;23;20024;-78
2020/12/09 05:59:39;;;;;;;538.00;63.80;;;;;;;2.92;75.70;100943.16;6217945;23;20024;-78
2020/12/09 06:02:09;;;;;;;530.40;61.78;;;;;;;2.88;76.01;100935.34;6244571;23;20027;-78
2020/12/09 06:04:44;;;;;;;573.20;64.18;;;;;;;2.85;76.35;100920.56;6217697;23;20016;-78
2020/12/09 06:07:11;;;;;;;568.55;66.65;;;;;;;2.84;76.32;100924.06;6217630;23;20020;-78
2020/12/09 06:09:38;;;;;;;664.08;68.65;;;;;;;2.84;76.63;100921.44;6218656;23;20016;-78
2020/12/09 06:12:05;;;;;;;610.70;69.18;;;;;;;2.81;76.25;100916.28;6219420;23;20102;-77
2020/12/09 06:14:32;;;;;;;546.25;66.05;;;;;;;2.79;76.38;100904.97;6243619;23;20039;-79
2020/12/09 06:16:59;;;;;;;562.92;64.30;;;;;;;2.78;76.33;100908.44;6217290;23;20066;-78
2020/12/09 06:19:26;;;;;;;586.08;68.00;;;;;;;2.78;76.98;100908.44;6216897;23;20020;-78
2020/12/09 06:21:56;;;;;;;754.17;75.93;;;;;;;2.79;76.57;100920.66;6192213;23;20070;-78
2020/12/09 06:24:23;;;;;;;621.88;69.72;;;;;;;2.81;76.35;100918.88;6217321;23;20016;-78
2020/12/09 06:26:50;;;;;;;631.40;66.05;;;;;;;2.85;76.73;100930.19;6217182;23;20515;-78
2020/12/09 06:29:23;;;;;;;549.38;66.05;;;;;;;2.86;76.49;100932.78;6244187;23;20071;-78
2020/12/09 06:31:59;;;;;;;610.65;72.43;;;;;;;2.85;76.52;100923.19;6243433;23;20445;-78
2020/12/09 06:34:25;;;;;;;563.53;74.45;;;;;;;2.83;76.47;100935.44;6217528;23;20016;-78
2020/12/09 06:37:24;;;;;;;477.95;58.55;;;;;;;2.81;76.29;100928.50;6216915;23;20023;-78
2020/12/09 06:40:07;;;;;;;508.90;59.78;;;;;;;2.79;76.08;100931.13;6168364;23;20024;-78
2020/12/09 06:42:33;;;;;;;468.70;58.95;;;;;;;2.75;76.30;100929.44;6217583;23;20034;-78
2020/12/09 06:45:01;;;;;;;570.60;68.38;;;;;;;2.74;76.37;100927.69;6193362;23;20104;-78
2020/12/09 06:47:27;;;;;;;665.15;71.68;;;;;;;2.76;76.69;100928.53;6244037;23;20023;-78
2020/12/09 06:49:54;;;;;;;468.08;62.58;;;;;;;2.80;76.85;100930.22;6219246;23;20023;-78
2020/12/09 06:52:35;;;;;;;512.50;68.65;;;;;;;2.81;76.61;100937.19;6245813;23;20391;-77
2020/12/09 06:55:02;;;;;;;473.63;66.35;;;;;;;2.80;76.34;100942.44;6246018;23;20020;-78
2020/12/09 06:57:35;;;;;;;490.52;65.43;;;;;;;2.77;76.41;100943.34;6245307;23;20024;-78
2020/12/09 07:00:14;;;;;;;537.38;70.10;;;;;;;2.77;76.23;100943.34;6219353;23;20016;-78
2020/12/09 07:02:44;;;;;;;492.02;64.78;;;;;;;2.74;76.01;100948.59;6217974;23;20031;-78
2020/12/09 07:05:12;;;;;;;505.65;66.85;;;;;;;2.71;76.41;100959.09;6245542;23;20394;-78
2020/12/09 07:07:45;;;;;;;510.20;66.30;;;;;;;2.71;76.55;100953.84;6223924;23;20046;-78
2020/12/09 07:10:23;;;;;;;487.55;63.20;;;;;;;2.72;76.81;100960.84;6240100;23;20016;-78
2020/12/09 07:13:00;;;;;;;456.65;62.53;;;;;;;2.73;76.55;100966.06;6219799;23;20451;-78
2020/12/09 07:15:27;;;;;;;525.38;67.90;;;;;;;2.75;76.65;100971.28;6193702;23;20107;-78
2020/12/09 07:17:54;;;;;;;500.15;68.38;;;;;;;2.76;76.81;100967.75;6219135;23;20016;-80
2020/12/09 07:20:21;;;;;;;501.25;67.90;;;;;;;2.78;76.59;100966.00;6220071;23;20028;-78
2020/12/09 07:22:47;;;;;;;541.83;71.70;;;;;;;2.80;76.75;100969.44;6228094;23;20028;-79
2020/12/09 07:25:13;;;;;;;597.45;77.43;;;;;;;2.83;76.74;100958.97;6232426;23;20012;-79
2020/12/09 07:27:39;;;;;;;486.85;58.72;;;;;;;2.85;76.76;100972.88;6232899;23;20020;-79
2020/12/09 07:30:11;;;;;;;515.25;67.60;;;;;;;2.83;76.42;100974.66;6208316;23;20035;-79
2020/12/09 07:32:38;;;;;;;506.17;65.32;;;;;;;2.83;76.36;100979.88;6221549;23;20024;-79
2020/12/09 07:35:09;;;;;;;485.20;62.50;;;;;;;2.81;76.36;100971.19;6220066;23;20082;-79
2020/12/09 07:37:39;;;;;;;502.73;64.13;;;;;;;2.79;76.42;100972.97;6220328;23;20020;-79
2020/12/09 07:40:10;;;;;;;501.40;63.80;;;;;;;2.77;76.46;100974.75;6232850;23;20080;-79
2020/12/09 07:42:37;;;;;;;513.00;63.40;;;;;;;2.76;76.50;100983.44;6231903;23;20031;-79
2020/12/09 07:45:08;;;;;;;487.42;65.45;;;;;;;2.77;76.65;100989.53;6231756;23;20119;-79
2020/12/09 07:47:34;;;;;;;488.75;67.38;;;;;;;2.80;76.89;100995.59;6248970;23;20031;-79
2020/12/09 07:50:03;;;;;;;447.30;63.28;;;;;;;2.81;76.77;100992.13;6203994;23;20023;-79
2020/12/09 07:52:32;;;;;;;464.83;62.08;;;;;;;2.80;76.49;100985.13;6225324;23;20020;-80
2020/12/09 07:55:00;;;;;;;466.67;63.45;;;;;;;2.80;76.61;100994.75;6219912;23;20016;-80
2020/12/09 07:57:35;;;;;;;495.63;65.65;;;;;;;2.79;76.40;100991.28;6217589;23;20031;-79
2020/12/09 08:00:05;;;;;;;455.15;59.90;;;;;;;2.77;76.17;100990.44;6219349;23;20020;-79
2020/12/09 08:02:38;;;;;;;397.95;51.78;;;;;;;2.73;76.27;100991.31;6245579;23;20024;-79
2020/12/09 08:05:15;;;;;;;446.63;56.40;;;;;;;2.67;76.34;100989.63;6244955;23;20039;-79
2020/12/09 08:07:54;;;;;;;426.75;53.85;;;;;;;2.65;76.39;100990.53;6244571;23;20047;-79
2020/12/09 08:10:32;;;;;;;415.27;52.33;;;;;;;2.64;76.60;100994.91;6218925;23;20020;-80
2020/12/09 08:13:07;;;;;;;374.95;52.63;;;;;;;2.64;76.61;100988.81;6220797;23;20027;-78
2020/12/09 08:15:36;;;;;;;393.50;53.33;;;;;;;2.66;76.82;100987.91;6195957;23;20039;-79
2020/12/09 08:18:03;;;;;;;413.83;55.15;;;;;;;2.69;76.95;100987.91;6195745;23;20043;-79
2020/12/09 08:20:29;;;;;;;410.27;49.72;;;;;;;2.74;76.66;100993.06;6224588;23;20016;-79
2020/12/09 08:23:00;;;;;;;395.02;49.15;;;;;;;2.78;76.74;101000.00;6229006;23;20026;-80
2020/12/09 08:25:31;;;;;;;447.58;53.33;;;;;;;2.80;76.68;101010.44;6200290;23;20049;-80
2020/12/09 08:28:05;;;;;;;376.98;44.95;;;;;;;2.79;76.57;101009.59;6221591;23;20020;-80
2020/12/09 08:30:33;;;;;;;394.67;46.40;;;;;;;2.79;76.30;101009.59;6220935;23;20346;-79
2020/12/09 08:33:05;;;;;;;402.55;47.47;;;;;;;2.81;76.73;101013.03;6196193;23;20020;-80
2020/12/09 08:35:50;;;;;;;472.58;51.35;;;;;;;2.84;76.52;101002.53;6222151;23;20016;-80
2020/12/09 08:38:23;;;;;;;408.80;49.35;;;;;;;2.88;76.54;100999.03;6222006;23;20020;-80
2020/12/09 08:40:51;;;;;;;456.10;50.00;;;;;;;2.91;76.77;100993.75;6259226;23;20016;-79
2020/12/09 08:43:19;;;;;;;438.92;49.85;;;;;;;2.97;76.59;100994.56;6253031;23;20020;-80
2020/12/09 08:45:45;;;;;;;486.00;50.53;;;;;;;3.01;76.61;100993.63;6245496;23;20019;-79
2020/12/09 08:48:12;;;;;;;499.48;50.53;;;;;;;3.06;76.65;100991.84;6219170;23;20019;-79
2020/12/09 08:50:38;;;;;;;459.88;49.58;;;;;;;3.09;76.36;100997.06;6243829;23;20031;-80
2020/12/09 08:53:04;;;;;;;493.20;51.28;;;;;;;3.12;76.40;101002.22;6219702;23;20026;-79
2020/12/09 08:55:30;;;;;;;554.30;52.97;;;;;;;3.15;76.43;101002.22;6217821;23;20043;-78
2020/12/09 08:57:56;;;;;;;600.85;55.50;;;;;;;3.19;76.33;100988.19;6244106;23;20020;-78
2020/12/09 09:00:22;;;;;;;570.90;53.10;;;;;;;3.20;76.29;100989.94;6246235;23;20159;-79
2020/12/09 09:02:48;;;;;;;506.42;51.08;;;;;;;3.23;76.23;100994.25;6196478;23;20024;-79
2020/12/09 09:05:14;;;;;;;536.15;52.22;;;;;;;3.23;76.29;100982.03;6246947;23;20009;-79
2020/12/09 09:07:40;;;;;;;532.65;63.38;;;;;;;3.27;76.10;100975.88;6221200;23;20024;-79
2020/12/09 09:10:07;;;;;;;563.17;55.13;;;;;;;3.28;76.05;100977.63;6247456;23;20027;-79
2020/12/09 09:12:33;;;;;;;601.65;66.03;;;;;;;3.31;76.19;100977.59;6246837;23;20024;-80
2020/12/09 09:14:59;;;;;;;565.13;58.35;;;;;;;3.35;75.87;100972.28;6245623;23;20023;-79
2020/12/09 09:17:25;;;;;;;567.67;55.85;;;;;;;3.39;75.79;100979.22;6244457;23;20016;-80
2020/12/09 09:20:00;;;;;;;604.78;56.55;;;;;;;3.43;76.19;100980.94;6195645;23;20024;-80
2020/12/09 09:22:26;;;;;;;651.40;58.97;;;;;;;3.49;76.15;100980.84;6243128;23;20016;-79
2020/12/09 09:24:52;;;;;;;641.80;62.78;;;;;;;3.53;75.79;100986.91;6243937;23;20048;-78
2020/12/09 09:27:18;;;;;;;557.25;57.63;;;;;;;3.55;76.13;100996.44;6223115;23;20019;-79
2020/12/09 09:29:44;;;;;;;495.90;57.95;;;;;;;3.56;76.11;100992.97;6252155;23;20430;-79
2020/12/09 09:32:12;;;;;;;570.88;59.30;;;;;;;3.57;75.71;100999.91;6243329;23;20048;-79
2020/12/09 09:34:39;;;;;;;507.63;55.05;;;;;;;3.59;75.76;100998.13;6245780;23;20048;-79
2020/12/09 09:37:07;;;;;;;550.63;57.35;;;;;;;3.61;75.97;100998.97;6219568;23;20020;-80
2020/12/09 09:39:34;;;;;;;522.17;57.53;;;;;;;3.64;75.92;100996.34;6219151;23;20024;-78
2020/12/09 09:42:00;;;;;;;491.02;56.35;;;;;;;3.66;75.83;100999.78;6220144;23;20020;-79
2020/12/09 09:44:26;;;;;;;411.70;48.97;;;;;;;3.69;75.99;100994.53;6225390;23;20040;-78
2020/12/09 09:46:56;;;;;;;573.58;59.38;;;;;;;3.74;76.00;101001.44;6252433;23;20099;-77
2020/12/09 09:49:23;;;;;;;533.67;60.40;;;;;;;3.79;75.88;101004.88;6219487;23;20020;-78
2020/12/09 09:51:50;;;;;;;514.42;62.25;;;;;;;3.79;75.53;101000.50;6244420;23;20031;-78
2020/12/09 09:54:17;;;;;;;618.60;61.75;;;;;;;3.83;76.10;101006.56;6244700;23;20020;-78
2020/12/09 09:56:43;;;;;;;581.28;58.45;;;;;;;3.89;75.96;100998.59;6244672;23;20283;-78
2020/12/09 09:59:10;;;;;;;485.33;57.33;;;;;;;3.97;75.87;100999.34;6217938;23;20023;-78
2020/12/09 10:01:36;;;;;;;538.80;57.50;;;;;;;4.02;75.72;100992.28;6246906;23;20012;-82
2020/12/09 10:04:06;;;;;;;473.65;56.60;;;;;;;4.07;75.71;100995.69;6266719;23;20016;-82
2020/12/09 10:06:33;;;;;;;437.88;54.53;;;;;;;4.13;75.48;100999.13;6264922;23;20078;-82
2020/12/09 10:09:01;;;;;;;424.20;58.85;;;;;;;4.14;75.60;100991.22;6232442;23;20024;-82
2020/12/09 10:11:27;;;;;;;453.42;61.53;;;;;;;4.16;75.39;100991.19;6231007;23;20051;-82
2020/12/09 10:13:54;;;;;;;446.88;58.05;;;;;;;4.14;75.40;101001.69;6230367;23;20016;-82
2020/12/09 10:16:23;;;;;;;473.27;58.10;;;;;;;4.14;75.49;101000.84;6258673;23;20012;-82
2020/12/09 10:18:50;;;;;;;552.30;59.63;;;;;;;4.17;75.68;101006.03;6235128;23;20024;-82
2020/12/09 10:21:27;;;;;;;453.20;56.85;;;;;;;4.22;75.57;100998.94;6266374;22;20023;-82
2020/12/09 10:23:54;;;;;;;420.48;53.33;;;;;;;4.24;75.49;101002.44;6267167;23;20046;-82
2020/12/09 10:26:27;;;;;;;358.50;52.50;;;;;;;4.21;75.09;101007.72;6238921;23;20023;-82
2020/12/09 10:28:53;;;;;;;438.95;53.65;;;;;;;4.18;75.26;101007.75;6263005;23;20039;-82
2020/12/09 10:31:20;;;;;;;437.55;53.47;;;;;;;4.20;75.74;101013.84;6260718;22;20020;-82
2020/12/09 10:33:47;;;;;;;387.40;50.15;;;;;;;4.24;75.72;101007.69;6258265;23;20036;-82
2020/12/09 10:36:15;;;;;;;310.98;50.15;;;;;;;4.28;75.34;101009.34;6259129;23;20018;-82
2020/12/09 10:38:41;;;;;;;343.65;48.67;;;;;;;4.29;75.67;101005.81;6256907;23;20016;-82
2020/12/09 10:41:09;;;;;;;370.38;51.15;;;;;;;4.35;75.46;101005.75;6258800;22;20020;-82
2020/12/09 10:43:38;;;;;;;308.63;50.13;;;;;;;4.37;75.69;101001.34;6261032;23;20016;-82
2020/12/09 10:46:06;;;;;;;327.73;47.60;;;;;;;4.38;75.18;100989.09;6265863;23;20016;-83
2020/12/09 10:48:32;;;;;;;394.58;51.35;;;;;;;4.39;75.56;100991.69;6270211;22;20015;-82
2020/12/09 10:50:58;;;;;;;299.42;48.30;;;;;;;4.44;75.32;100997.69;6267394;22;20027;-82
2020/12/09 10:53:24;;;;;;;279.95;46.50;;;;;;;4.52;75.19;100996.69;6256854;23;20031;-83
2020/12/09 10:55:51;;;;;;;294.42;47.45;;;;;;;4.57;75.54;100997.50;6248502;23;20016;-81
2020/12/09 10:58:17;;;;;;;284.92;49.30;;;;;;;4.60;75.50;100995.69;6249108;23;20020;-81
2020/12/09 11:00:42;;;;;;;314.48;51.78;;;;;;;4.67;75.42;100996.41;6255894;22;20026;-81
2020/12/09 11:03:08;;;;;;;332.73;51.83;;;;;;;4.73;75.37;100996.34;6262501;23;20053;-80
2020/12/09 11:05:34;;;;;;;323.13;52.30;;;;;;;4.75;75.32;100997.16;6262090;23;20009;-80
2020/12/09 11:08:00;;;;;;;336.58;60.58;;;;;;;4.78;75.04;100988.34;6225523;23;20107;-80
2020/12/09 11:10:26;;;;;;;404.83;60.15;;;;;;;4.76;75.13;100980.50;6224201;23;20046;-81
2020/12/09 11:12:52;;;;;;;335.98;52.28;;;;;;;4.76;75.02;100988.38;6248306;23;20046;-80
2020/12/09 11:15:18;;;;;;;391.33;58.75;;;;;;;4.79;75.39;100980.47;6249677;23;20573;-80